createdAt,value
2018-01-26T00:00:03.512Z,2.13
2018-01-26T00:02:31.651Z,1.90
2018-01-26T00:05:00.059Z,2.50
2018-01-26T00:07:28.501Z,2.93
2018-01-26T00:09:56.896Z,2.80
2018-01-26T00:12:25.307Z,2.60
2018-01-26T00:14:53.714Z,2.90
2018-01-26T00:17:22.100Z,3.00
2018-01-26T00:19:50.730Z,2.73
2018-01-26T00:22:19.210Z,2.93
2018-01-26T00:24:47.664Z,3.10
2018-01-26T00:27:16.039Z,3.30
2018-01-26T00:29:44.404Z,4.20
2018-01-26T00:32:12.843Z,3.77
2018-01-26T00:34:41.208Z,3.00
2018-01-26T00:37:09.982Z,3.33
2018-01-26T00:39:38.342Z,3.53
2018-01-26T00:42:06.734Z,3.97
2018-01-26T00:44:35.199Z,4.10
2018-01-26T00:47:03.573Z,3.90
2018-01-26T00:49:32.270Z,3.83
2018-01-26T00:52:00.668Z,3.80
2018-01-26T00:54:29.163Z,4.50
2018-01-26T00:56:57.515Z,4.00
2018-01-26T00:59:26.214Z,4.17
2018-01-26T01:01:54.592Z,4.53
2018-01-26T01:04:23.060Z,4.60
2018-01-26T01:06:51.440Z,4.90
2018-01-26T01:09:19.818Z,3.67
2018-01-26T01:11:48.274Z,4.90
2018-01-26T01:14:16.654Z,3.67
2018-01-26T01:16:45.054Z,4.20
2018-01-26T01:19:13.432Z,4.37
2018-01-26T01:21:41.791Z,4.17
2018-01-26T01:24:10.243Z,5.00
2018-01-26T01:26:38.638Z,5.10
2018-01-26T01:29:07.003Z,4.20
2018-01-26T01:31:35.377Z,4.10
2018-01-26T01:34:03.770Z,3.67
2018-01-26T01:36:32.490Z,4.20
2018-01-26T01:39:00.886Z,3.80
2018-01-26T01:41:29.254Z,4.07
2018-01-26T01:43:57.686Z,4.00
2018-01-26T01:46:26.126Z,4.03
2018-01-26T01:49:06.292Z,3.97
2018-01-26T01:51:35.038Z,4.00
2018-01-26T01:54:03.494Z,3.77
2018-01-26T01:56:31.889Z,4.00
2018-01-26T01:59:00.273Z,3.37
2018-01-26T02:01:28.943Z,3.50
2018-01-26T02:03:57.318Z,3.40
2018-01-26T02:06:25.703Z,4.50
2018-01-26T02:08:54.090Z,3.80
2018-01-26T02:11:22.478Z,3.80
2018-01-26T02:13:51.191Z,3.60
2018-01-26T02:16:23.009Z,3.60
2018-01-26T02:18:51.501Z,4.60
2018-01-26T02:21:19.863Z,3.70
2018-01-26T02:24:05.675Z,4.20
2018-01-26T02:26:39.907Z,3.60
2018-01-26T02:29:08.365Z,3.00
2018-01-26T02:31:36.830Z,3.37
2018-01-26T02:34:05.647Z,2.87
2018-01-26T02:36:34.052Z,3.30
2018-01-26T02:39:02.418Z,3.50
2018-01-26T02:41:30.892Z,3.67
2018-01-26T02:43:59.274Z,4.57
2018-01-26T02:46:28.043Z,3.63
2018-01-26T02:48:56.436Z,3.67
2018-01-26T02:51:24.819Z,2.80
2018-01-26T02:53:53.219Z,4.10
2018-01-26T02:56:21.639Z,4.50
2018-01-26T02:58:50.299Z,4.50
2018-01-26T03:01:18.683Z,5.07
2018-01-26T03:03:47.107Z,5.53
2018-01-26T03:06:15.487Z,5.80
2018-01-26T03:08:43.846Z,5.37
2018-01-26T03:11:12.552Z,4.03
2018-01-26T03:13:41.027Z,4.53
2018-01-26T03:16:09.379Z,4.03
2018-01-26T03:18:37.784Z,4.40
2018-01-26T03:21:06.522Z,5.10
2018-01-26T03:23:34.913Z,5.10
2018-01-26T03:26:03.296Z,4.67
2018-01-26T03:28:31.676Z,4.73
2018-01-26T03:31:00.064Z,4.40
2018-01-26T03:33:28.582Z,5.40
2018-01-26T03:35:57.022Z,4.70
2018-01-26T03:38:25.426Z,4.73
2018-01-26T03:40:53.863Z,4.20
2018-01-26T03:43:22.238Z,4.37
2018-01-26T03:45:50.650Z,5.00
2018-01-26T03:48:19.049Z,8.30
2018-01-26T03:50:47.399Z,7.73
2018-01-26T03:53:16.183Z,8.97
2018-01-26T03:55:44.550Z,9.17
2018-01-26T03:58:12.929Z,8.83
2018-01-26T04:00:41.629Z,7.30
2018-01-26T04:03:09.992Z,8.30
2018-01-26T04:05:38.394Z,9.37
2018-01-26T04:08:07.215Z,8.77
2018-01-26T04:10:35.606Z,9.23
2018-01-26T04:13:04.009Z,8.47
2018-01-26T04:15:32.396Z,9.97
2018-01-26T04:18:00.775Z,9.10
2018-01-26T04:20:29.182Z,8.03
2018-01-26T04:22:57.882Z,8.40
2018-01-26T04:25:26.360Z,8.43
2018-01-26T04:27:54.755Z,9.40
2018-01-26T04:30:23.273Z,9.30
2018-01-26T04:32:51.664Z,9.83
2018-01-26T04:35:20.094Z,10.77
2018-01-26T04:37:48.446Z,9.97
2018-01-26T04:40:16.882Z,10.23
2018-01-26T04:42:45.320Z,9.93
2018-01-26T04:45:13.712Z,9.37
2018-01-26T04:47:42.091Z,9.87
2018-01-26T04:50:10.482Z,11.07
2018-01-26T04:52:38.886Z,11.90
2018-01-26T04:55:07.294Z,11.87
2018-01-26T04:57:35.795Z,12.77
2018-01-26T05:00:04.164Z,10.83
2018-01-26T05:02:32.552Z,11.43
2018-01-26T05:05:00.958Z,10.13
2018-01-26T05:07:29.383Z,11.60
2018-01-26T05:09:57.835Z,10.50
2018-01-26T05:12:26.233Z,10.70
2018-01-26T05:14:54.685Z,11.87
2018-01-26T05:17:23.097Z,11.17
2018-01-26T05:19:51.494Z,10.43
2018-01-26T05:22:20.230Z,12.13
2018-01-26T05:24:48.734Z,11.70
2018-01-26T05:27:17.136Z,11.80
2018-01-26T05:29:45.526Z,12.00
2018-01-26T05:32:13.970Z,11.27
2018-01-26T05:34:42.356Z,12.17
2018-01-26T05:37:10.763Z,11.77
2018-01-26T05:39:39.202Z,12.70
2018-01-26T05:42:07.613Z,13.90
2018-01-26T05:44:36.076Z,12.80
2018-01-26T05:47:04.486Z,12.33
2018-01-26T05:49:32.843Z,12.93
2018-01-26T05:52:01.241Z,13.90
2018-01-26T05:54:29.634Z,14.07
2018-01-26T05:56:58.103Z,12.87
2018-01-26T05:59:26.544Z,11.63
2018-01-26T06:01:54.932Z,13.13
2018-01-26T06:07:23.585Z,12.47
2018-01-26T06:09:51.985Z,16.63
2018-01-26T06:12:20.481Z,11.47
2018-01-26T06:14:48.878Z,10.73
2018-01-26T06:17:17.358Z,11.07
2018-01-26T06:19:46.050Z,11.83
2018-01-26T06:22:14.446Z,11.87
2018-01-26T06:24:42.907Z,10.57
2018-01-26T06:27:11.314Z,10.53
2018-01-26T06:29:39.726Z,11.17
2018-01-26T06:32:08.422Z,13.50
2018-01-26T06:34:36.811Z,11.50
2018-01-26T06:37:05.204Z,20.57
2018-01-26T06:39:33.599Z,19.03
2018-01-26T06:42:01.998Z,17.63
2018-01-26T06:44:30.470Z,18.47
2018-01-26T06:46:58.855Z,18.73
2018-01-26T06:49:27.307Z,13.53
2018-01-26T06:51:55.758Z,13.87
2018-01-26T06:54:24.150Z,12.70
2018-01-26T06:56:52.692Z,13.83
2018-01-26T06:59:21.088Z,12.00
2018-01-26T07:01:49.480Z,11.03
2018-01-26T07:04:17.870Z,10.37
2018-01-26T07:06:46.289Z,11.30
2018-01-26T07:09:14.983Z,12.07
2018-01-26T07:11:43.383Z,12.27
2018-01-26T07:14:11.798Z,12.63
2018-01-26T07:16:40.266Z,11.13
2018-01-26T07:19:08.686Z,11.53
2018-01-26T07:21:37.134Z,12.00
2018-01-26T07:24:05.547Z,12.47
2018-01-26T07:26:33.985Z,11.50
2018-01-26T07:29:02.378Z,12.40
2018-01-26T07:31:30.793Z,13.30
2018-01-26T07:33:59.248Z,11.80
2018-01-26T07:36:27.644Z,12.17
2018-01-26T07:38:56.034Z,12.57
2018-01-26T07:41:24.434Z,10.90
2018-01-26T07:43:52.845Z,10.83
2018-01-26T07:46:21.610Z,9.77
2018-01-26T07:48:50.014Z,20.07
2018-01-26T07:51:18.419Z,10.30
2018-01-26T07:53:46.839Z,8.90
2018-01-26T07:56:15.230Z,10.17
2018-01-26T07:58:43.676Z,10.17
2018-01-26T08:01:12.082Z,9.10
2018-01-26T08:03:40.558Z,9.47
2018-01-26T08:06:08.956Z,10.07
2018-01-26T08:08:37.351Z,9.80
2018-01-26T08:11:05.803Z,10.87
2018-01-26T08:13:34.202Z,9.67
2018-01-26T08:16:15.449Z,9.40
2018-01-26T08:18:43.926Z,9.30
2018-01-26T08:21:12.334Z,9.60
2018-01-26T08:23:40.747Z,12.03
2018-01-26T08:26:09.202Z,13.87
2018-01-26T08:28:37.649Z,11.77
2018-01-26T08:31:06.034Z,9.43
2018-01-26T08:33:34.438Z,10.70
2018-01-26T08:36:02.867Z,11.43
2018-01-26T08:38:31.272Z,10.47
2018-01-26T08:41:00.043Z,9.27
2018-01-26T08:43:29.986Z,6.97
2018-01-26T08:45:58.395Z,7.23
2018-01-26T08:48:26.800Z,7.50
2018-01-26T08:50:55.241Z,7.70
2018-01-26T08:53:23.963Z,8.00
2018-01-26T08:55:52.353Z,7.80
2018-01-26T08:58:20.754Z,7.93
2018-01-26T09:00:49.138Z,8.87
2018-01-26T09:03:17.602Z,8.57
2018-01-26T09:05:46.210Z,8.50
2018-01-26T09:08:14.603Z,8.70
2018-01-26T09:10:43.000Z,9.17
2018-01-26T09:13:11.407Z,9.93
2018-01-26T09:15:39.827Z,8.37
2018-01-26T09:18:08.276Z,7.87
2018-01-26T09:20:36.730Z,7.33
2018-01-26T09:23:05.085Z,8.23
2018-01-26T09:25:33.559Z,7.57
2018-01-26T09:28:01.981Z,7.17
2018-01-26T09:30:30.700Z,7.53
2018-01-26T09:32:59.067Z,7.87
2018-01-26T09:35:27.467Z,7.80
2018-01-26T09:37:55.923Z,8.80
2018-01-26T09:40:24.328Z,8.17
2018-01-26T09:42:53.065Z,8.80
2018-01-26T09:45:21.458Z,9.10
2018-01-26T09:47:49.863Z,8.83
2018-01-26T09:50:20.974Z,8.87
2018-01-26T09:52:49.362Z,9.07
2018-01-26T09:55:17.808Z,9.17
2018-01-26T09:57:46.189Z,8.60
2018-01-26T10:00:14.633Z,8.07
2018-01-26T10:02:43.098Z,8.83
2018-01-26T10:05:11.548Z,7.57
2018-01-26T10:07:40.204Z,8.23
2018-01-26T10:10:08.595Z,8.37
2018-01-26T10:12:37.017Z,8.10
2018-01-26T10:15:05.496Z,7.83
2018-01-26T10:17:33.898Z,7.53
2018-01-26T10:20:02.615Z,7.97
2018-01-26T10:22:31.008Z,6.50
2018-01-26T10:24:59.382Z,7.53
2018-01-26T10:27:27.787Z,6.67
2018-01-26T10:29:56.178Z,6.80
2018-01-26T10:32:24.719Z,6.37
2018-01-26T10:34:53.123Z,6.80
2018-01-26T10:37:21.537Z,6.70
2018-01-26T10:39:49.945Z,7.37
2018-01-26T10:42:18.402Z,7.83
2018-01-26T10:44:46.874Z,7.00
2018-01-26T10:47:15.279Z,7.60
2018-01-26T10:49:43.672Z,6.37
2018-01-26T10:52:12.079Z,7.07
2018-01-26T10:54:40.463Z,8.00
2018-01-26T10:57:09.074Z,7.80
2018-01-26T10:59:37.462Z,7.23
2018-01-26T11:02:05.843Z,9.07
2018-01-26T11:04:34.240Z,8.20
2018-01-26T11:07:02.640Z,7.50
2018-01-26T11:09:31.454Z,6.20
2018-01-26T11:11:59.911Z,7.97
2018-01-26T11:14:28.314Z,7.03
2018-01-26T11:16:56.715Z,7.33
2018-01-26T11:19:25.214Z,7.10
2018-01-26T11:21:53.657Z,7.70
2018-01-26T11:24:22.039Z,7.50
2018-01-26T11:26:50.435Z,7.73
2018-01-26T11:29:18.838Z,7.13
2018-01-26T11:31:47.234Z,8.33
2018-01-26T11:34:15.695Z,7.20
2018-01-26T11:36:44.083Z,6.40
2018-01-26T11:39:12.546Z,6.23
2018-01-26T11:41:40.931Z,7.20
2018-01-26T11:44:09.347Z,6.60
2018-01-26T11:46:38.140Z,7.00
2018-01-26T11:49:06.632Z,7.73
2018-01-26T11:51:36.010Z,7.50
2018-01-26T11:54:04.407Z,6.83
2018-01-26T11:56:32.807Z,7.13
2018-01-26T11:59:01.319Z,6.77
2018-01-26T12:01:29.710Z,7.30
2018-01-26T12:03:58.121Z,5.33
2018-01-26T12:06:26.522Z,6.60
2018-01-26T12:08:54.920Z,7.00
2018-01-26T12:11:23.743Z,5.80
2018-01-26T12:13:52.219Z,5.77
2018-01-26T12:16:20.615Z,7.07
2018-01-26T12:18:49.031Z,7.27
2018-01-26T12:21:17.422Z,7.43
2018-01-26T12:23:45.880Z,7.07
2018-01-26T12:26:14.302Z,6.20
2018-01-26T12:28:42.707Z,6.87
2018-01-26T12:31:11.182Z,7.23
2018-01-26T12:33:39.571Z,6.87
2018-01-26T12:36:08.367Z,7.33
2018-01-26T12:38:36.760Z,6.33
2018-01-26T12:41:05.215Z,6.10
2018-01-26T12:43:33.586Z,8.17
2018-01-26T12:46:01.979Z,7.20
2018-01-26T12:48:30.822Z,7.07
2018-01-26T12:50:59.263Z,7.10
2018-01-26T12:53:27.693Z,7.80
2018-01-26T12:55:56.083Z,7.57
2018-01-26T12:58:24.485Z,8.83
2018-01-26T13:00:54.017Z,9.60
2018-01-26T13:03:22.412Z,9.00
2018-01-26T13:05:50.817Z,9.53
2018-01-26T13:08:19.257Z,9.17
2018-01-26T13:10:47.655Z,8.67
2018-01-26T13:13:16.263Z,8.80
2018-01-26T13:15:44.660Z,7.97
2018-01-26T13:18:13.079Z,7.63
2018-01-26T13:20:41.466Z,6.80
2018-01-26T13:23:09.951Z,8.10
2018-01-26T13:25:38.399Z,7.83
2018-01-26T13:28:06.792Z,8.27
2018-01-26T13:30:35.197Z,7.57
2018-01-26T13:33:03.578Z,7.90
2018-01-26T13:35:31.990Z,7.03
2018-01-26T13:38:00.447Z,6.60
2018-01-26T13:40:28.931Z,7.40
2018-01-26T13:42:57.357Z,8.13
2018-01-26T13:45:25.763Z,7.97
2018-01-26T13:47:54.177Z,8.27
2018-01-26T13:50:22.970Z,7.13
2018-01-26T13:52:51.361Z,7.70
2018-01-26T13:55:19.767Z,7.33
2018-01-26T13:57:48.167Z,6.57
2018-01-26T14:00:16.579Z,7.23
2018-01-26T14:02:45.302Z,8.23
2018-01-26T14:05:13.696Z,7.93
2018-01-26T14:07:42.135Z,8.60
2018-01-26T14:10:10.543Z,9.23
2018-01-26T14:12:38.947Z,8.63
2018-01-26T14:15:07.641Z,7.97
2018-01-26T14:17:36.029Z,8.17
2018-01-26T14:20:04.427Z,8.60
2018-01-26T14:22:32.809Z,8.47
2018-01-26T14:25:01.198Z,8.97
2018-01-26T14:27:30.059Z,9.73
2018-01-26T14:29:58.454Z,9.30
2018-01-26T14:32:26.876Z,9.77
2018-01-26T14:34:55.270Z,8.83
2018-01-26T14:37:23.758Z,9.47
2018-01-26T14:39:52.492Z,10.23
2018-01-26T14:42:20.910Z,10.13
2018-01-26T14:44:49.290Z,9.83
2018-01-26T14:47:17.706Z,12.00
2018-01-26T14:49:46.116Z,10.63
2018-01-26T14:52:14.630Z,10.27
2018-01-26T14:54:43.023Z,10.97
2018-01-26T14:57:11.419Z,10.90
2018-01-26T14:59:39.826Z,11.53
2018-01-26T15:02:08.221Z,12.43
2018-01-26T15:04:36.943Z,10.20
2018-01-26T15:07:05.341Z,10.10
2018-01-26T15:09:33.743Z,10.50
2018-01-26T15:12:02.228Z,11.37
2018-01-26T15:14:30.656Z,10.93
2018-01-26T15:16:59.115Z,9.90
2018-01-26T15:19:27.532Z,11.13
2018-01-26T15:21:55.934Z,11.13
2018-01-26T15:24:24.349Z,9.80
2018-01-26T15:26:52.749Z,11.00
2018-01-26T15:29:21.235Z,9.77
2018-01-26T15:31:49.662Z,11.17
2018-01-26T15:34:18.068Z,11.47
2018-01-26T15:36:46.518Z,11.77
2018-01-26T15:39:16.770Z,11.07
2018-01-26T15:41:47.158Z,12.10
2018-01-26T15:44:15.562Z,11.10
2018-01-26T15:46:43.956Z,12.20
2018-01-26T15:49:12.357Z,13.40
2018-01-26T15:51:40.764Z,14.67
2018-01-26T15:54:09.534Z,13.47
2018-01-26T15:56:37.937Z,12.80
2018-01-26T15:59:06.530Z,12.73
2018-01-26T16:01:34.923Z,12.30
2018-01-26T16:04:03.415Z,12.43
2018-01-26T16:06:31.892Z,12.80
2018-01-26T16:09:00.313Z,14.17
2018-01-26T16:11:28.730Z,12.00
2018-01-26T16:13:57.143Z,13.70
2018-01-26T16:16:25.622Z,11.90
2018-01-26T16:18:54.102Z,13.10
2018-01-26T16:21:22.528Z,12.97
2018-01-26T16:23:50.918Z,12.80
2018-01-26T16:26:19.353Z,12.70
2018-01-26T16:28:47.746Z,13.03
2018-01-26T16:31:16.363Z,12.00
2018-01-26T16:33:44.763Z,11.30
2018-01-26T16:36:13.172Z,12.23
2018-01-26T16:38:41.554Z,13.53
2018-01-26T16:41:09.950Z,11.60
2018-01-26T16:43:38.418Z,12.33
2018-01-26T16:46:06.823Z,13.67
2018-01-26T16:48:35.283Z,13.30
2018-01-26T16:51:03.702Z,13.10
2018-01-26T16:53:32.090Z,12.70
2018-01-26T16:56:00.850Z,13.43
2018-01-26T16:58:29.292Z,13.77
2018-01-26T17:00:57.698Z,11.40
2018-01-26T17:03:26.114Z,13.13
2018-01-26T17:05:54.510Z,11.50
2018-01-26T17:08:23.226Z,11.70
2018-01-26T17:10:51.648Z,11.07
2018-01-26T17:13:20.054Z,13.10
2018-01-26T17:15:48.518Z,11.00
2018-01-26T17:18:16.922Z,12.73
2018-01-26T17:20:45.830Z,13.27
2018-01-26T17:23:14.240Z,13.27
2018-01-26T17:25:42.646Z,12.97
2018-01-26T17:28:11.083Z,15.70
2018-01-26T17:30:39.508Z,12.10
2018-01-26T17:33:08.062Z,13.83
2018-01-26T17:35:36.466Z,12.77
2018-01-26T17:38:05.278Z,13.23
2018-01-26T17:40:33.690Z,10.70
2018-01-26T17:43:02.200Z,10.93
2018-01-26T17:45:30.638Z,11.53
2018-01-26T17:47:59.026Z,14.33
2018-01-26T17:50:27.470Z,13.10
2018-01-26T17:52:55.868Z,13.20
2018-01-26T17:55:24.253Z,15.60
2018-01-26T17:57:52.682Z,13.90
2018-01-26T18:00:21.142Z,13.13
2018-01-26T18:02:49.957Z,15.87
2018-01-26T18:05:18.350Z,14.07
2018-01-26T18:07:46.757Z,14.50
2018-01-26T18:10:15.160Z,13.63
2018-01-26T18:12:43.632Z,13.20
2018-01-26T18:15:12.119Z,13.20
2018-01-26T18:17:40.606Z,13.60
2018-01-26T18:20:09.014Z,12.37
2018-01-26T18:25:37.798Z,12.95
2018-01-26T18:28:06.522Z,12.70
2018-01-26T18:30:34.904Z,15.50
2018-01-26T18:33:03.294Z,12.40
2018-01-26T18:35:31.700Z,13.02
2018-01-26T18:38:00.096Z,13.35
2018-01-26T18:40:28.493Z,14.23
2018-01-26T18:42:56.894Z,13.93
2018-01-26T18:45:27.715Z,14.90
2018-01-26T18:47:56.295Z,14.70
2018-01-26T18:50:24.802Z,14.20
2018-01-26T18:52:53.348Z,13.60
2018-01-26T18:55:21.855Z,13.02
2018-01-26T18:57:50.287Z,14.27
2018-01-26T19:00:18.747Z,13.25
2018-01-26T19:02:47.154Z,12.00
2018-01-26T19:05:15.564Z,13.32
2018-01-26T19:07:44.048Z,13.00
2018-01-26T19:10:12.455Z,12.10
2018-01-26T19:12:41.015Z,13.07
2018-01-26T19:15:10.093Z,12.85
2018-01-26T19:17:39.490Z,11.27
2018-01-26T19:20:08.307Z,13.25
2018-01-26T19:22:36.795Z,12.27
2018-01-26T19:25:05.206Z,12.20
2018-01-26T19:27:33.691Z,12.88
2018-01-26T19:30:02.095Z,11.90
2018-01-26T19:32:30.554Z,11.90
2018-01-26T19:34:58.988Z,12.47
2018-01-26T19:37:27.393Z,11.50
2018-01-26T19:39:56.079Z,12.13
2018-01-26T19:42:24.526Z,12.87
2018-01-26T19:44:52.932Z,11.90
2018-01-26T19:47:21.419Z,12.75
2018-01-26T19:49:49.835Z,12.63
2018-01-26T19:52:18.551Z,13.30
2018-01-26T19:54:46.962Z,12.90
2018-01-26T19:57:15.398Z,11.73
2018-01-26T19:59:43.843Z,11.97
2018-01-26T20:02:12.236Z,10.77
2018-01-26T20:04:46.364Z,12.00
2018-01-26T20:07:29.174Z,10.70
2018-01-26T20:09:57.978Z,11.13
2018-01-26T20:12:27.162Z,11.57
2018-01-26T20:14:55.628Z,10.97
2018-01-26T20:17:24.150Z,11.20
2018-01-26T20:19:52.606Z,11.53
2018-01-26T20:22:21.071Z,10.00
2018-01-26T20:24:49.566Z,12.18
2018-01-26T20:27:18.164Z,12.97
2018-01-26T20:29:46.662Z,10.97
2018-01-26T20:32:19.962Z,11.30
2018-01-26T20:34:48.458Z,10.90
2018-01-26T20:37:16.849Z,13.07
2018-01-26T20:39:45.215Z,11.83
2018-01-26T20:42:13.637Z,12.70
2018-01-26T20:44:42.039Z,11.10
2018-01-26T20:47:10.754Z,12.63
2018-01-26T20:49:39.241Z,12.33
2018-01-26T20:52:07.649Z,11.90
2018-01-26T20:54:36.380Z,12.00
2018-01-26T20:57:04.983Z,14.20
2018-01-26T20:59:33.403Z,12.93
2018-01-26T21:02:01.878Z,13.37
2018-01-26T21:04:30.304Z,13.60
2018-01-26T21:06:58.712Z,14.10
2018-01-26T21:09:27.467Z,14.23
2018-01-26T21:11:55.867Z,13.67
2018-01-26T21:14:24.387Z,12.43
2018-01-26T21:16:53.086Z,12.90
2018-01-26T21:19:21.502Z,17.47
2018-01-26T21:21:49.911Z,18.13
2018-01-26T21:24:18.604Z,18.90
2018-01-26T21:26:47.002Z,18.10
2018-01-26T21:29:15.402Z,19.40
2018-01-26T21:31:44.137Z,18.20
2018-01-26T21:34:12.595Z,17.33
2018-01-26T21:36:41.004Z,15.37
2018-01-26T21:39:09.859Z,15.80
2018-01-26T21:41:38.267Z,11.23
2018-01-26T21:44:06.669Z,10.77
2018-01-26T21:46:35.388Z,11.17
2018-01-26T21:49:03.782Z,11.03
2018-01-26T21:51:32.282Z,12.50
2018-01-26T21:54:00.861Z,13.77
2018-01-26T21:56:29.311Z,13.50
2018-01-26T21:58:57.728Z,12.83
2018-01-26T22:01:26.435Z,13.27
2018-01-26T22:03:54.830Z,13.57
2018-01-26T22:06:29.875Z,13.67
2018-01-26T22:08:58.306Z,15.00
2018-01-26T22:11:26.713Z,16.90
2018-01-26T22:13:55.533Z,16.03
2018-01-26T22:16:23.950Z,15.23
2018-01-26T22:18:52.342Z,15.13
2018-01-26T22:21:20.895Z,22.80
2018-01-26T22:23:49.291Z,20.00
2018-01-26T22:26:17.659Z,22.80
2018-01-26T22:28:46.145Z,18.90
2018-01-26T22:31:14.546Z,17.30
2018-01-26T22:33:43.160Z,16.60
2018-01-26T22:36:11.561Z,15.93
2018-01-26T22:38:39.967Z,17.57
2018-01-26T22:41:08.684Z,17.20
2018-01-26T22:43:37.103Z,17.90
2018-01-26T22:46:05.534Z,18.93
2018-01-26T22:48:34.218Z,19.83
2018-01-26T22:51:02.631Z,19.87
2018-01-26T22:53:31.043Z,21.13
2018-01-26T22:55:59.728Z,22.67
2018-01-26T22:58:28.187Z,21.53
2018-01-26T23:00:56.628Z,20.83
2018-01-26T23:03:25.524Z,22.33
2018-01-26T23:05:53.944Z,21.93
2018-01-26T23:08:22.326Z,24.03
2018-01-26T23:10:51.065Z,21.90
2018-01-26T23:13:19.474Z,21.90
2018-01-26T23:15:47.857Z,23.97
2018-01-26T23:18:16.227Z,23.27
2018-01-26T23:20:44.599Z,22.03
2018-01-26T23:23:12.970Z,23.97
2018-01-26T23:25:41.341Z,23.70
2018-01-26T23:28:09.717Z,24.30
2018-01-26T23:30:38.102Z,28.10
2018-01-26T23:33:06.483Z,26.60
2018-01-26T23:35:34.867Z,23.90
2018-01-26T23:38:03.383Z,23.87
2018-01-26T23:40:31.846Z,24.27
2018-01-26T23:43:00.275Z,23.97
2018-01-26T23:45:29.007Z,23.30
2018-01-26T23:47:57.427Z,24.37
2018-01-26T23:50:25.916Z,23.37
2018-01-26T23:52:54.378Z,26.80
2018-01-26T23:55:22.824Z,26.57
2018-01-26T23:57:51.242Z,27.50
